createdAt,value
2019-03-17T00:00:41.872Z,85.32
2019-03-17T00:01:41.852Z,84.70
2019-03-17T00:02:41.849Z,84.75
2019-03-17T00:03:45.852Z,84.75
2019-03-17T00:04:42.349Z,84.99
2019-03-17T00:05:42.349Z,85.18
2019-03-17T00:06:42.366Z,85.60
2019-03-17T00:07:42.850Z,85.37
2019-03-17T00:08:42.849Z,85.47
2019-03-17T00:09:45.854Z,85.56
2019-03-17T00:10:42.878Z,85.66
2019-03-17T00:12:05.318Z,85.56
2019-03-17T00:12:43.353Z,85.94
2019-03-17T00:13:43.349Z,85.56
2019-03-17T00:14:47.348Z,85.18
2019-03-17T00:15:44.816Z,85.18
2019-03-17T00:16:43.854Z,85.47
2019-03-17T00:17:43.848Z,86.13
2019-03-17T00:18:43.848Z,86.51
2019-03-17T00:19:44.349Z,86.42
2019-03-17T00:21:09.346Z,86.51
2019-03-17T00:21:44.348Z,86.22
2019-03-17T00:22:44.348Z,86.42
2019-03-17T00:23:44.848Z,86.51
2019-03-17T00:24:44.849Z,86.90
2019-03-17T00:25:44.862Z,86.42
2019-03-17T00:26:48.348Z,86.42
2019-03-17T00:28:06.347Z,86.61
2019-03-17T00:28:46.808Z,86.04
2019-03-17T00:30:06.348Z,85.75
2019-03-17T00:31:06.348Z,86.42
2019-03-17T00:31:49.354Z,86.22
2019-03-17T00:33:06.849Z,86.51
2019-03-17T00:34:06.848Z,86.22
2019-03-17T00:35:06.846Z,85.94
2019-03-17T00:35:45.848Z,85.85
2019-03-17T00:37:12.850Z,85.75
2019-03-17T00:37:48.352Z,86.32
2019-03-17T00:38:46.371Z,85.85
2019-03-17T00:39:48.813Z,85.37
2019-03-17T00:41:07.847Z,85.94
2019-03-17T00:42:10.847Z,85.75
2019-03-17T00:43:07.847Z,86.51
2019-03-17T00:43:46.847Z,86.42
2019-03-17T00:45:11.245Z,85.85
2019-03-17T00:46:08.349Z,86.13
2019-03-17T00:46:47.353Z,86.32
2019-03-17T00:47:50.848Z,85.85
2019-03-17T00:49:08.849Z,85.56
2019-03-17T00:51:19.222Z,85.56
2019-03-17T00:52:19.225Z,85.94
2019-03-17T00:53:23.218Z,85.56
2019-03-17T00:54:21.724Z,86.32
2019-03-17T00:55:19.723Z,86.13
2019-03-17T00:56:19.719Z,86.51
2019-03-17T00:57:19.717Z,86.13
2019-03-17T00:58:22.215Z,85.94
2019-03-17T00:59:23.219Z,86.13
2019-03-17T01:00:41.222Z,86.13
2019-03-17T01:01:20.215Z,86.04
2019-03-17T01:02:22.717Z,86.13
2019-03-17T01:03:20.718Z,86.42
2019-03-17T01:04:24.218Z,86.22
2019-03-17T01:05:20.723Z,86.42
2019-03-17T01:06:21.300Z,86.51
2019-03-17T01:07:21.218Z,86.66
2019-03-17T01:08:42.222Z,86.66
2019-03-17T01:09:21.220Z,86.18
2019-03-17T01:10:25.217Z,86.47
2019-03-17T01:11:21.750Z,86.76
2019-03-17T01:12:21.715Z,87.52
2019-03-17T01:13:21.716Z,87.32
2019-03-17T01:14:22.222Z,87.52
2019-03-17T01:15:22.223Z,87.80
2019-03-17T01:16:25.216Z,87.99
2019-03-17T01:17:22.217Z,88.37
2019-03-17T01:18:22.716Z,88.56
2019-03-17T01:19:22.717Z,88.46
2019-03-17T01:20:22.716Z,88.37
2019-03-17T01:21:26.745Z,88.28
2019-03-17T01:22:23.216Z,88.37
2019-03-17T01:23:24.672Z,88.37
2019-03-17T01:24:23.216Z,88.18
2019-03-17T01:25:23.216Z,88.85
2019-03-17T01:26:23.222Z,89.14
2019-03-17T01:29:19.927Z,87.71
2019-03-17T01:29:58.937Z,88.18
2019-03-17T01:30:58.935Z,88.18
2019-03-17T01:31:59.445Z,88.37
2019-03-17T01:33:02.938Z,89.04
2019-03-17T01:33:59.433Z,89.32
2019-03-17T01:35:08.609Z,89.32
2019-03-17T01:35:59.943Z,89.42
2019-03-17T01:36:59.933Z,89.04
2019-03-17T01:37:59.931Z,89.42
2019-03-17T01:39:03.934Z,88.28
2019-03-17T01:40:00.433Z,88.37
2019-03-17T01:41:00.431Z,88.28
2019-03-17T01:42:00.439Z,88.09
2019-03-17T01:43:00.434Z,88.37
2019-03-17T01:44:25.449Z,88.37
2019-03-17T01:45:21.938Z,88.46
2019-03-17T01:46:21.934Z,88.75
2019-03-17T01:47:00.936Z,88.75
2019-03-17T01:48:22.462Z,89.04
2019-03-17T01:49:02.408Z,88.09
2019-03-17T01:50:05.433Z,88.28
2019-03-17T01:51:01.431Z,88.28
2019-03-17T01:52:02.869Z,88.46
2019-03-17T01:53:01.932Z,88.46
2019-03-17T01:54:01.988Z,88.85
2019-03-17T01:55:01.936Z,89.23
2019-03-17T01:56:05.431Z,89.04
2019-03-17T01:57:02.435Z,88.28
2019-03-17T01:58:02.432Z,88.90
2019-03-17T01:59:23.432Z,89.47
2019-03-17T02:00:02.432Z,89.28
2019-03-17T02:01:27.433Z,89.28
2019-03-17T02:02:02.934Z,89.09
2019-03-17T02:03:02.944Z,89.56
2019-03-17T02:04:02.931Z,89.66
2019-03-17T02:05:03.432Z,89.85
2019-03-17T02:06:03.436Z,89.66
2019-03-17T02:07:07.445Z,89.47
2019-03-17T02:08:03.433Z,89.47
2019-03-17T02:09:03.932Z,89.85
2019-03-17T02:10:03.931Z,89.14
2019-03-17T02:11:03.937Z,89.18
2019-03-17T02:12:03.929Z,89.37
2019-03-17T02:13:07.432Z,90.04
2019-03-17T02:14:04.431Z,89.66
2019-03-17T02:15:04.432Z,90.23
2019-03-17T02:16:04.432Z,90.23
2019-03-17T02:17:04.931Z,89.99
2019-03-17T02:18:08.434Z,90.04
2019-03-17T02:19:04.934Z,90.04
2019-03-17T02:20:04.933Z,89.99
2019-03-17T02:21:05.434Z,89.85
2019-03-17T02:22:05.432Z,90.08
2019-03-17T02:23:29.931Z,90.28
2019-03-17T02:24:05.432Z,90.47
2019-03-17T02:25:27.906Z,90.66
2019-03-17T02:26:26.931Z,90.56
2019-03-17T02:27:05.939Z,90.28
2019-03-17T02:28:05.931Z,90.56
2019-03-17T02:29:33.894Z,90.28
2019-03-17T02:30:27.431Z,90.56
2019-03-17T02:31:06.430Z,91.32
2019-03-17T02:32:06.429Z,90.94
2019-03-17T02:33:06.432Z,91.22
2019-03-17T02:34:06.933Z,90.28
2019-03-17T02:35:39.088Z,90.75
2019-03-17T02:36:06.936Z,90.08
2019-03-17T02:37:27.931Z,90.28
2019-03-17T02:38:28.431Z,90.08
2019-03-17T02:39:07.430Z,89.89
2019-03-17T02:40:07.435Z,90.18
2019-03-17T02:41:12.930Z,90.37
2019-03-17T02:42:07.932Z,89.99
2019-03-17T02:43:07.941Z,90.18
2019-03-17T02:44:07.954Z,90.94
2019-03-17T02:45:07.930Z,90.75
2019-03-17T02:46:31.941Z,90.28
2019-03-17T02:47:08.436Z,90.66
2019-03-17T02:48:08.432Z,90.37
2019-03-17T02:49:08.429Z,90.56
2019-03-17T02:50:29.928Z,90.75
2019-03-17T02:51:11.961Z,90.61
2019-03-17T02:52:08.930Z,90.42
2019-03-17T02:53:08.929Z,89.94
2019-03-17T02:54:09.430Z,89.84
2019-03-17T02:55:09.431Z,89.99
2019-03-17T02:56:34.430Z,89.94
2019-03-17T02:57:09.434Z,90.22
2019-03-17T02:58:11.970Z,89.84
2019-03-17T02:59:30.931Z,89.75
2019-03-17T03:00:30.933Z,89.84
2019-03-17T03:01:09.926Z,90.22
2019-03-17T03:03:46.180Z,89.56
2019-03-17T03:04:46.199Z,89.84
2019-03-17T03:05:54.740Z,90.13
2019-03-17T03:06:46.183Z,89.84
2019-03-17T03:07:49.685Z,90.22
2019-03-17T03:08:46.683Z,89.84
2019-03-17T03:09:46.698Z,90.03
2019-03-17T03:10:46.683Z,89.94
2019-03-17T03:11:47.183Z,89.94
2019-03-17T03:13:12.184Z,90.13
2019-03-17T03:13:47.185Z,89.84
2019-03-17T03:14:47.188Z,90.22
2019-03-17T03:15:47.683Z,90.13
2019-03-17T03:16:47.683Z,89.84
2019-03-17T03:17:47.683Z,89.84
2019-03-17T03:18:52.653Z,90.13
2019-03-17T03:20:09.212Z,89.75
2019-03-17T03:20:48.190Z,89.94
2019-03-17T03:21:48.206Z,90.13
2019-03-17T03:22:48.187Z,89.08
2019-03-17T03:24:13.182Z,88.99
2019-03-17T03:25:10.643Z,88.89
2019-03-17T03:25:48.691Z,87.85
2019-03-17T03:26:48.681Z,88.32
2019-03-17T03:27:48.682Z,88.51
2019-03-17T03:28:49.182Z,88.13
2019-03-17T03:29:51.466Z,86.99
2019-03-17T03:30:49.197Z,86.80
2019-03-17T03:31:49.187Z,87.56
2019-03-17T03:32:49.750Z,87.65
2019-03-17T03:33:49.694Z,88.13
2019-03-17T03:34:53.206Z,88.32
2019-03-17T03:35:49.693Z,88.32
2019-03-17T03:36:50.235Z,88.42
2019-03-17T03:37:50.203Z,87.98
2019-03-17T03:38:50.183Z,87.51
2019-03-17T03:39:50.188Z,86.65
2019-03-17T03:40:54.182Z,87.41
2019-03-17T03:41:50.685Z,86.84
2019-03-17T03:42:50.680Z,86.75
2019-03-17T03:43:50.682Z,86.65
2019-03-17T03:44:51.182Z,86.94
2019-03-17T03:45:51.201Z,86.65
2019-03-17T03:46:54.182Z,86.94
2019-03-17T03:47:51.183Z,86.65
2019-03-17T03:48:51.686Z,86.65
2019-03-17T03:49:51.691Z,86.84
2019-03-17T03:50:51.744Z,86.65
2019-03-17T03:52:16.771Z,86.65
2019-03-17T03:52:52.184Z,86.65
2019-03-17T03:53:52.182Z,86.94
2019-03-17T03:54:52.181Z,86.08
2019-03-17T03:55:52.178Z,86.75
2019-03-17T03:56:52.682Z,86.65
2019-03-17T03:58:17.694Z,85.99
2019-03-17T03:58:52.681Z,85.60
2019-03-17T03:59:52.683Z,85.03
2019-03-17T04:01:14.188Z,84.94
2019-03-17T04:01:53.199Z,84.94
2019-03-17T04:02:53.183Z,84.56
2019-03-17T04:03:56.681Z,85.13
2019-03-17T04:04:53.677Z,84.65
2019-03-17T04:05:53.682Z,84.65
2019-03-17T04:06:53.687Z,85.03
2019-03-17T04:07:53.682Z,85.99
2019-03-17T04:09:18.687Z,85.60
2019-03-17T04:09:54.185Z,85.70
2019-03-17T04:10:54.250Z,84.84
2019-03-17T04:11:54.179Z,84.17
2019-03-17T04:12:54.712Z,84.94
2019-03-17T04:13:54.680Z,84.94
2019-03-17T04:16:30.017Z,84.36
2019-03-17T04:17:30.020Z,83.80
2019-03-17T04:18:30.026Z,83.70
2019-03-17T04:19:30.523Z,84.36
2019-03-17T04:20:34.040Z,84.94
2019-03-17T04:21:30.522Z,84.56
2019-03-17T04:22:30.523Z,84.46
2019-03-17T04:23:31.023Z,84.46
2019-03-17T04:24:31.024Z,83.89
2019-03-17T04:25:31.024Z,84.36
2019-03-17T04:26:35.031Z,84.56
2019-03-17T04:27:31.527Z,84.75
2019-03-17T04:28:31.523Z,85.13
2019-03-17T04:29:31.532Z,84.94
2019-03-17T04:30:32.456Z,84.50
2019-03-17T04:31:56.529Z,84.84
2019-03-17T04:32:53.023Z,83.80
2019-03-17T04:33:53.027Z,84.36
2019-03-17T04:34:32.023Z,83.80
2019-03-17T04:35:54.456Z,83.22
2019-03-17T04:36:40.259Z,82.93
2019-03-17T04:37:36.522Z,82.46
2019-03-17T04:38:32.557Z,83.03
2019-03-17T04:39:33.026Z,83.32
2019-03-17T04:40:33.022Z,84.36
2019-03-17T04:41:34.957Z,83.98
2019-03-17T04:42:33.021Z,84.36
2019-03-17T04:43:37.528Z,84.56
2019-03-17T04:44:33.517Z,83.22
2019-03-17T04:45:33.522Z,83.03
2019-03-17T04:46:33.521Z,82.65
2019-03-17T04:47:55.022Z,82.27
2019-03-17T04:48:34.021Z,82.84
2019-03-17T04:49:37.521Z,82.84
2019-03-17T04:50:34.038Z,83.41
2019-03-17T04:51:34.522Z,84.17
2019-03-17T04:52:34.531Z,84.84
2019-03-17T04:53:34.527Z,83.80
2019-03-17T04:54:38.529Z,82.56
2019-03-17T04:55:36.482Z,82.46
2019-03-17T04:56:35.020Z,82.56
2019-03-17T04:57:35.022Z,82.93
2019-03-17T04:58:35.021Z,82.37
2019-03-17T04:59:35.549Z,82.65
2019-03-17T05:00:39.524Z,82.89
2019-03-17T05:01:35.524Z,83.26
2019-03-17T05:02:35.531Z,83.13
2019-03-17T05:03:36.021Z,82.69
2019-03-17T05:04:36.020Z,83.03
2019-03-17T05:05:36.020Z,82.89
2019-03-17T05:06:47.874Z,83.36
2019-03-17T05:07:59.520Z,82.84
2019-03-17T05:08:36.521Z,81.89
2019-03-17T05:09:36.526Z,81.98
2019-03-17T05:10:36.522Z,81.89
2019-03-17T05:11:41.957Z,82.37
2019-03-17T05:12:37.021Z,82.65
2019-03-17T05:13:37.029Z,82.84
2019-03-17T05:14:37.024Z,82.98
2019-03-17T05:15:37.520Z,82.56
2019-03-17T05:16:37.521Z,82.18
2019-03-17T05:17:41.518Z,83.32
2019-03-17T05:18:37.520Z,82.08
2019-03-17T05:19:38.021Z,81.60
2019-03-17T05:20:38.020Z,82.46
2019-03-17T05:21:38.020Z,81.98
2019-03-17T05:22:38.022Z,81.60
2019-03-17T05:23:41.521Z,81.79
2019-03-17T05:24:38.520Z,82.46
2019-03-17T05:25:38.518Z,82.84
2019-03-17T05:26:38.520Z,82.37
2019-03-17T05:27:39.019Z,81.70
2019-03-17T05:28:43.023Z,81.23
2019-03-17T05:29:39.024Z,81.60
2019-03-17T05:30:39.019Z,81.23
2019-03-17T05:32:00.523Z,81.89
2019-03-17T05:32:39.520Z,81.41
2019-03-17T05:33:39.525Z,82.37
2019-03-17T05:34:44.020Z,82.18
2019-03-17T05:35:40.020Z,81.60
2019-03-17T05:36:40.021Z,81.23
2019-03-17T05:37:40.022Z,81.23
2019-03-17T05:38:40.020Z,81.03
2019-03-17T05:39:40.527Z,81.60
2019-03-17T05:40:43.519Z,81.65
2019-03-17T05:41:40.519Z,81.65
2019-03-17T05:42:41.147Z,82.18
2019-03-17T05:43:41.019Z,81.98
2019-03-17T05:44:41.021Z,81.32
2019-03-17T05:45:46.020Z,81.60
2019-03-17T05:46:41.019Z,81.98
2019-03-17T05:47:41.519Z,81.79
2019-03-17T05:48:41.515Z,81.60
2019-03-17T05:49:41.576Z,81.32
2019-03-17T05:50:41.519Z,81.51
2019-03-17T05:52:08.022Z,81.98
2019-03-17T05:52:42.018Z,81.60
2019-03-17T05:53:42.029Z,81.46
2019-03-17T05:54:42.053Z,81.32
2019-03-17T05:55:42.018Z,80.84
2019-03-17T05:57:07.018Z,80.75
2019-03-17T05:57:42.518Z,82.37
2019-03-17T05:58:42.520Z,81.23
2019-03-17T06:00:03.512Z,80.94
2019-03-17T06:00:43.019Z,81.70
2019-03-17T06:01:43.018Z,82.08
2019-03-17T06:02:49.020Z,82.65
2019-03-17T06:03:43.019Z,82.37
2019-03-17T06:04:43.518Z,82.18
2019-03-17T06:05:43.523Z,81.79
2019-03-17T06:06:43.514Z,81.98
2019-03-17T06:07:43.519Z,81.98
2019-03-17T06:08:47.018Z,83.03
2019-03-17T06:09:44.018Z,82.65
2019-03-17T06:10:44.030Z,82.56
2019-03-17T06:11:44.018Z,81.89
2019-03-17T06:12:44.518Z,82.93
2019-03-17T06:14:09.018Z,82.75
2019-03-17T06:14:44.527Z,81.98
2019-03-17T06:15:44.518Z,81.41
2019-03-17T06:16:45.018Z,82.37
2019-03-17T06:17:45.016Z,82.18
2019-03-17T06:18:45.017Z,81.70
2019-03-17T06:19:49.018Z,81.46
2019-03-17T06:20:45.518Z,82.03
2019-03-17T06:21:45.517Z,82.03
2019-03-17T06:22:45.518Z,82.50
2019-03-17T06:23:45.517Z,82.12
2019-03-17T06:24:46.017Z,81.36
2019-03-17T06:25:49.017Z,81.17
2019-03-17T06:26:46.018Z,80.69
2019-03-17T06:28:07.017Z,80.69
2019-03-17T06:28:46.518Z,80.60
2019-03-17T06:30:07.524Z,81.17
2019-03-17T06:30:50.520Z,81.17
2019-03-17T06:31:46.517Z,80.60
2019-03-17T06:34:18.253Z,81.84
2019-03-17T06:35:18.264Z,80.50
2019-03-17T06:36:21.764Z,80.02
2019-03-17T06:37:30.197Z,80.79
2019-03-17T06:38:18.764Z,81.55
2019-03-17T06:39:18.763Z,79.64
2019-03-17T06:40:18.760Z,80.02
2019-03-17T06:41:23.258Z,80.31
2019-03-17T06:42:19.266Z,80.02
2019-03-17T06:43:19.259Z,79.93
2019-03-17T06:44:19.260Z,81.07
2019-03-17T06:45:21.758Z,81.17
2019-03-17T06:46:19.759Z,80.31
2019-03-17T06:47:23.263Z,79.93
2019-03-17T06:48:19.760Z,79.74
2019-03-17T06:49:20.260Z,80.31
2019-03-17T06:50:20.261Z,80.69
2019-03-17T06:51:20.257Z,80.41
2019-03-17T06:52:24.257Z,80.69
2019-03-17T06:53:41.760Z,80.60
2019-03-17T06:54:41.759Z,79.93
2019-03-17T06:55:20.761Z,79.83
2019-03-17T06:56:20.767Z,79.17
2019-03-17T06:57:21.260Z,79.64
2019-03-17T06:58:25.259Z,79.27
2019-03-17T06:59:21.258Z,79.27
2019-03-17T07:00:21.264Z,79.17
2019-03-17T07:01:21.759Z,79.27
2019-03-17T07:02:42.762Z,79.64
2019-03-17T07:03:21.758Z,78.98
2019-03-17T07:04:25.266Z,79.88
2019-03-17T07:05:22.271Z,79.27
2019-03-17T07:06:22.267Z,79.88
2019-03-17T07:07:22.259Z,79.55
2019-03-17T07:08:22.260Z,79.30
2019-03-17T07:09:47.259Z,79.07
2019-03-17T07:10:22.758Z,78.12
2019-03-17T07:11:22.763Z,78.83
2019-03-17T07:12:22.759Z,79.64
2019-03-17T07:13:23.258Z,79.40
2019-03-17T07:14:23.260Z,79.30
2019-03-17T07:15:27.256Z,79.49
2019-03-17T07:16:23.260Z,78.83
2019-03-17T07:17:23.778Z,79.49
2019-03-17T07:18:23.763Z,79.02
2019-03-17T07:19:23.759Z,79.11
2019-03-17T07:20:31.693Z,77.87
2019-03-17T07:21:27.259Z,77.87
2019-03-17T07:22:24.266Z,78.44
2019-03-17T07:23:24.259Z,79.49
2019-03-17T07:24:24.258Z,79.68
2019-03-17T07:25:24.760Z,78.54
2019-03-17T07:26:49.259Z,77.64
2019-03-17T07:27:24.106Z,78.25
2019-03-17T07:28:24.763Z,78.06
2019-03-17T07:29:25.262Z,78.35
2019-03-17T07:30:39.259Z,78.25
2019-03-17T07:31:25.256Z,77.97
2019-03-17T07:32:29.267Z,78.44
2019-03-17T07:33:25.758Z,79.49
2019-03-17T07:34:25.759Z,79.02
2019-03-17T07:35:25.758Z,79.40
2019-03-17T07:36:25.760Z,78.35
2019-03-17T07:37:26.260Z,78.73
2019-03-17T07:38:29.258Z,77.97
2019-03-17T07:39:26.260Z,78.06
2019-03-17T07:40:26.258Z,77.87
2019-03-17T07:41:47.758Z,78.35
2019-03-17T07:42:26.765Z,79.02
2019-03-17T07:43:30.768Z,78.44
2019-03-17T07:44:26.758Z,78.54
2019-03-17T07:45:48.258Z,78.73
2019-03-17T07:46:27.269Z,78.35
2019-03-17T07:47:48.267Z,77.78
2019-03-17T07:48:27.259Z,78.06
2019-03-17T07:49:31.759Z,79.30
2019-03-17T07:50:27.762Z,79.11
2019-03-17T07:51:27.758Z,78.73
2019-03-17T07:52:27.762Z,79.02
2019-03-17T07:53:28.261Z,77.78
2019-03-17T07:54:28.258Z,77.59
2019-03-17T07:55:31.758Z,77.72
2019-03-17T07:56:28.257Z,77.72
2019-03-17T07:57:28.757Z,76.96
2019-03-17T07:58:28.758Z,76.86
2019-03-17T07:59:28.758Z,77.25
2019-03-17T08:00:53.758Z,78.39
2019-03-17T08:01:29.256Z,78.49
2019-03-17T08:02:29.264Z,77.62
2019-03-17T08:03:29.258Z,76.39
2019-03-17T08:04:41.606Z,76.77
2019-03-17T08:05:28.853Z,76.67
2019-03-17T08:06:35.238Z,77.91
2019-03-17T08:07:29.761Z,77.82
2019-03-17T08:08:29.841Z,76.96
2019-03-17T08:09:32.694Z,76.86
2019-03-17T08:10:30.258Z,76.29
2019-03-17T08:11:30.255Z,77.25
2019-03-17T08:12:33.758Z,77.91
2019-03-17T08:13:30.758Z,76.57
2019-03-17T08:14:30.757Z,76.48
2019-03-17T08:15:30.758Z,75.53
2019-03-17T08:16:30.758Z,76.39
2019-03-17T08:17:34.758Z,76.57
2019-03-17T08:18:31.257Z,76.86
2019-03-17T08:19:31.256Z,78.49
2019-03-17T08:20:31.257Z,76.39
2019-03-17T08:21:31.755Z,76.86
2019-03-17T08:24:06.457Z,75.81
2019-03-17T08:25:06.465Z,77.06
2019-03-17T08:26:07.401Z,76.48
2019-03-17T08:27:27.968Z,76.96
2019-03-17T08:28:10.464Z,76.57
2019-03-17T08:29:06.964Z,76.10
2019-03-17T08:30:06.966Z,76.10
2019-03-17T08:31:06.964Z,76.57
2019-03-17T08:32:07.465Z,75.62
2019-03-17T08:33:07.466Z,75.53
2019-03-17T08:34:10.465Z,76.48
2019-03-17T08:35:07.465Z,76.42
2019-03-17T08:36:07.967Z,77.00
2019-03-17T08:37:07.968Z,77.67
2019-03-17T08:38:07.973Z,77.19
2019-03-17T08:39:11.965Z,76.46
2019-03-17T08:40:08.464Z,76.56
2019-03-17T08:41:08.464Z,74.90
2019-03-17T08:42:29.467Z,76.14
2019-03-17T08:43:29.464Z,75.70
2019-03-17T08:44:11.964Z,75.47
2019-03-17T08:46:40.825Z,74.99
2019-03-17T08:47:40.834Z,75.85
2019-03-17T08:48:40.834Z,76.23
2019-03-17T08:49:44.344Z,75.47
2019-03-17T08:50:41.341Z,77.00
2019-03-17T08:51:41.336Z,75.57
2019-03-17T08:52:41.336Z,76.23
2019-03-17T08:53:41.346Z,75.37
2019-03-17T08:56:17.664Z,77.19
2019-03-17T08:57:17.638Z,77.09
2019-03-17T08:58:17.642Z,76.52
2019-03-17T08:59:17.647Z,76.62
2019-03-17T09:00:21.144Z,76.71
2019-03-17T09:01:18.138Z,76.81
2019-03-17T09:02:39.139Z,76.71
2019-03-17T09:03:19.092Z,76.33
2019-03-17T09:04:18.136Z,76.23
2019-03-17T09:05:18.142Z,78.05
2019-03-17T09:06:22.141Z,79.48
2019-03-17T09:07:18.653Z,78.81
2019-03-17T09:08:18.658Z,78.33
2019-03-17T09:09:18.644Z,79.48
2019-03-17T09:10:19.156Z,79.38
2019-03-17T09:11:19.138Z,77.57
2019-03-17T09:12:22.144Z,78.14
2019-03-17T09:13:19.137Z,78.81
2019-03-17T09:14:40.638Z,79.19
2019-03-17T09:15:19.650Z,79.67
2019-03-17T09:16:40.644Z,79.19
2019-03-17T09:17:23.664Z,79.96
2019-03-17T09:18:20.190Z,80.24
2019-03-17T09:19:20.145Z,80.72
2019-03-17T09:20:20.138Z,80.72
2019-03-17T09:21:20.139Z,80.81
2019-03-17T09:22:20.638Z,79.77
2019-03-17T09:23:24.652Z,79.86
2019-03-17T09:24:20.642Z,80.05
2019-03-17T09:25:20.636Z,79.86
2019-03-17T09:26:21.138Z,80.53
2019-03-17T09:27:21.139Z,79.48
2019-03-17T09:28:21.138Z,79.71
2019-03-17T09:29:24.638Z,78.75
2019-03-17T09:30:21.638Z,80.09
2019-03-17T09:31:21.638Z,79.23
2019-03-17T09:32:21.638Z,79.23
2019-03-17T09:33:21.638Z,79.14
2019-03-17T09:34:46.670Z,79.52
2019-03-17T09:35:22.142Z,79.14
2019-03-17T09:36:22.137Z,78.75
2019-03-17T09:37:22.138Z,79.04
2019-03-17T09:38:22.657Z,78.56
2019-03-17T09:39:22.651Z,78.75
2019-03-17T09:41:58.059Z,77.99
2019-03-17T09:42:58.066Z,79.14
2019-03-17T09:43:58.565Z,79.52
2019-03-17T09:44:58.565Z,78.72
2019-03-17T09:46:02.086Z,79.38
2019-03-17T09:46:58.571Z,79.57
2019-03-17T09:48:00.016Z,79.57
2019-03-17T09:48:59.065Z,79.57
2019-03-17T09:51:54.929Z,80.91
2019-03-17T09:52:30.437Z,81.38
2019-03-17T09:53:30.937Z,81.01
2019-03-17T09:54:30.943Z,81.10
2019-03-17T09:55:30.940Z,82.63
2019-03-17T09:56:34.937Z,81.77
2019-03-17T09:57:31.453Z,81.29
2019-03-17T09:58:31.436Z,81.96
2019-03-17T09:59:31.433Z,81.38
2019-03-17T10:00:31.437Z,81.58
2019-03-17T10:01:31.936Z,80.62
2019-03-17T10:02:34.934Z,81.29
2019-03-17T10:03:31.937Z,81.10
2019-03-17T10:04:31.938Z,80.72
2019-03-17T10:05:32.436Z,82.06
2019-03-17T10:06:32.436Z,80.77
2019-03-17T10:07:36.436Z,81.15
2019-03-17T10:08:32.436Z,81.44
2019-03-17T10:09:32.936Z,82.20
2019-03-17T10:10:32.939Z,82.78
2019-03-17T10:11:32.936Z,83.35
2019-03-17T10:12:32.938Z,83.25
2019-03-17T10:13:58.435Z,82.63
2019-03-17T10:14:33.443Z,82.24
2019-03-17T10:15:33.438Z,81.77
2019-03-17T10:16:33.436Z,81.77
2019-03-17T10:17:33.936Z,81.86
2019-03-17T10:18:33.935Z,81.10
2019-03-17T10:19:40.376Z,81.67
2019-03-17T10:20:33.934Z,80.53
2019-03-17T10:21:34.436Z,81.10
2019-03-17T10:22:34.436Z,80.81
2019-03-17T10:23:34.436Z,81.58
2019-03-17T10:24:38.436Z,80.53
2019-03-17T10:25:55.945Z,80.62
2019-03-17T10:26:34.936Z,80.15
2019-03-17T10:27:34.937Z,80.81
2019-03-17T10:28:35.264Z,80.11
2019-03-17T10:29:35.436Z,79.63
2019-03-17T10:30:39.436Z,80.87
2019-03-17T10:31:37.870Z,80.68
2019-03-17T10:32:35.436Z,80.77
2019-03-17T10:33:37.403Z,80.68
2019-03-17T10:34:35.948Z,80.49
2019-03-17T10:35:35.937Z,81.44
2019-03-17T10:37:00.439Z,80.77
2019-03-17T10:37:35.938Z,80.68
2019-03-17T10:38:57.437Z,81.44
2019-03-17T10:39:37.870Z,82.01
2019-03-17T10:40:36.460Z,82.49
2019-03-17T10:41:40.434Z,83.16
2019-03-17T10:42:57.936Z,83.25
2019-03-17T10:43:36.938Z,82.78
2019-03-17T10:44:57.936Z,84.20
2019-03-17T10:45:36.944Z,84.78
2019-03-17T10:46:37.450Z,84.78
2019-03-17T10:47:40.436Z,84.78
2019-03-17T10:48:37.436Z,86.07
2019-03-17T10:49:37.436Z,85.45
2019-03-17T10:50:49.058Z,85.16
2019-03-17T10:51:37.945Z,86.30
2019-03-17T10:52:41.433Z,84.97
2019-03-17T10:53:37.936Z,84.20
2019-03-17T10:54:38.438Z,83.83
2019-03-17T10:55:38.444Z,84.40
2019-03-17T10:56:38.438Z,83.92
2019-03-17T10:57:38.436Z,83.83
2019-03-17T10:58:42.436Z,82.68
2019-03-17T10:59:38.936Z,82.59
2019-03-17T11:00:38.936Z,82.87
2019-03-17T11:01:38.972Z,84.59
2019-03-17T11:02:39.484Z,84.59
2019-03-17T11:03:39.436Z,83.92
2019-03-17T11:04:42.457Z,83.83
2019-03-17T11:05:39.440Z,83.44
2019-03-17T11:06:39.936Z,83.83
2019-03-17T11:07:39.935Z,82.20
2019-03-17T11:08:44.870Z,82.59
2019-03-17T11:09:43.937Z,82.97
2019-03-17T11:11:01.436Z,82.11
2019-03-17T11:11:40.439Z,82.78
2019-03-17T11:12:40.436Z,83.73
2019-03-17T11:13:40.436Z,84.30
2019-03-17T11:14:40.936Z,84.59
2019-03-17T11:15:44.937Z,83.73
2019-03-17T11:17:01.954Z,83.25
2019-03-17T11:17:40.936Z,83.92
2019-03-17T11:18:41.437Z,84.40
2019-03-17T11:19:41.439Z,85.16
2019-03-17T11:20:41.451Z,86.78
2019-03-17T11:22:05.936Z,87.26
2019-03-17T11:22:41.940Z,88.84
2019-03-17T11:23:41.936Z,89.60
2019-03-17T11:24:41.936Z,86.55
2019-03-17T11:25:41.939Z,87.27
2019-03-17T11:26:45.938Z,85.46
2019-03-17T11:27:42.437Z,85.80
2019-03-17T11:28:42.442Z,86.27
2019-03-17T11:29:42.439Z,86.18
2019-03-17T11:30:42.938Z,87.32
2019-03-17T11:31:45.936Z,88.84
2019-03-17T11:32:42.958Z,88.32
2019-03-17T11:33:42.935Z,89.32
2019-03-17T11:34:43.435Z,89.51
2019-03-17T11:35:43.443Z,90.03
2019-03-17T11:36:47.449Z,89.75
2019-03-17T11:37:43.433Z,89.94
2019-03-17T11:38:43.935Z,89.56
2019-03-17T11:40:04.935Z,89.37
2019-03-17T11:40:43.958Z,90.13
2019-03-17T11:41:43.940Z,90.22
2019-03-17T11:43:09.489Z,90.61
2019-03-17T11:43:44.436Z,90.32
2019-03-17T11:44:44.447Z,89.27
2019-03-17T11:45:44.435Z,88.23
2019-03-17T11:48:19.672Z,90.03
2019-03-17T11:49:16.179Z,90.94
2019-03-17T11:50:16.177Z,89.70
2019-03-17T11:51:16.681Z,89.23
2019-03-17T11:52:16.681Z,90.61
2019-03-17T11:53:41.178Z,90.89
2019-03-17T11:54:16.684Z,91.56
2019-03-17T11:55:38.178Z,91.94
2019-03-17T11:56:17.181Z,90.80
2019-03-17T11:58:52.659Z,88.04
2019-03-17T11:59:50.106Z,88.51
2019-03-17T12:00:48.674Z,89.08
2019-03-17T12:01:50.605Z,87.65
2019-03-17T12:02:49.169Z,88.51
2019-03-17T12:05:20.658Z,87.94
2019-03-17T12:06:20.663Z,86.51
2019-03-17T12:07:20.658Z,86.61
2019-03-17T12:08:21.161Z,85.56
2019-03-17T12:09:28.914Z,86.51
2019-03-17T12:10:21.164Z,87.56
2019-03-17T12:11:21.160Z,87.18
2019-03-17T12:12:21.658Z,87.27
2019-03-17T12:13:21.658Z,86.99
2019-03-17T12:14:25.659Z,86.70
2019-03-17T12:15:21.661Z,85.94
2019-03-17T12:16:22.165Z,86.70
2019-03-17T12:17:22.169Z,85.85
2019-03-17T12:18:23.092Z,84.61
2019-03-17T12:19:22.159Z,84.70
2019-03-17T12:20:47.658Z,84.70
2019-03-17T12:21:23.601Z,85.47
2019-03-17T12:22:22.662Z,85.37
2019-03-17T12:23:22.658Z,85.75
2019-03-17T12:24:22.658Z,85.47
2019-03-17T12:25:23.159Z,84.80
2019-03-17T12:26:47.658Z,84.99
2019-03-17T12:27:23.164Z,84.04
2019-03-17T12:28:23.158Z,82.14
2019-03-17T12:29:23.658Z,83.18
2019-03-17T12:30:23.663Z,84.52
2019-03-17T12:31:48.658Z,84.04
2019-03-17T12:32:23.658Z,83.56
2019-03-17T12:33:24.158Z,83.85
2019-03-17T12:34:28.398Z,83.37
2019-03-17T12:35:24.157Z,83.65
2019-03-17T12:36:24.154Z,82.99
2019-03-17T12:38:58.993Z,83.65
2019-03-17T12:40:02.730Z,83.56
2019-03-17T12:40:59.002Z,83.94
2019-03-17T12:41:59.499Z,83.75
2019-03-17T12:43:03.006Z,83.65
2019-03-17T12:43:59.501Z,83.85
2019-03-17T12:44:59.499Z,83.47
2019-03-17T12:45:59.999Z,83.65
2019-03-17T12:47:00.001Z,82.99
2019-03-17T12:47:59.998Z,82.93
2019-03-17T12:49:04.021Z,82.32
2019-03-17T12:50:06.433Z,81.28
2019-03-17T12:51:00.503Z,81.09
2019-03-17T12:52:00.499Z,80.33
2019-03-17T12:53:00.500Z,79.94
2019-03-17T12:54:00.999Z,80.42
2019-03-17T12:55:04.498Z,82.04
2019-03-17T12:56:01.001Z,82.90
2019-03-17T12:57:00.999Z,83.09
2019-03-17T12:58:01.500Z,82.14
2019-03-17T12:59:03.503Z,82.32
2019-03-17T13:00:05.499Z,82.32
2019-03-17T13:01:22.503Z,82.32
2019-03-17T13:02:23.005Z,80.80
2019-03-17T13:03:01.999Z,82.32
2019-03-17T13:04:01.998Z,82.04
2019-03-17T13:05:01.999Z,81.47
2019-03-17T13:06:06.497Z,81.85
2019-03-17T13:07:02.499Z,82.14
2019-03-17T13:08:02.496Z,82.14
2019-03-17T13:09:02.502Z,80.80
2019-03-17T13:10:24.008Z,80.99
2019-03-17T13:11:02.999Z,82.14
2019-03-17T13:12:06.495Z,82.99
2019-03-17T13:13:02.998Z,82.61
2019-03-17T13:14:24.498Z,82.80
2019-03-17T13:15:03.503Z,83.56
2019-03-17T13:16:03.498Z,83.09